Munising, MI

7:46 PM EST on March 02, 2015 (GMT -0500)
RAWS MUNISING MI US | Change Station
CLOSE
Current Station
Personal Weather Station
Location: Munising, MI
Elevation: 771 ft
Nearby Weather Stations
Active Advisory: Winter Weather Advisory

Elev 771 ft 46.43 °N, 86.62 °W | Updated 47 minutes ago

Clear
Clear
13 °F
Feels Like 13 °F
N
1
Wind Variable Wind from SE
Gusts 3.0 mph

Today
High -- | Low -- °F
--% Chance of Precip.
Yesterday
High -- | Low -- °F
Precip. -- in
7:24 AM 6:33 PM
Waxing Gibbous, 93% visible
Pressure 30.24 in
Visibility 10.0 miles
Clouds Clear
Windchill 13 °F
Dew Point 6 °F
Humidity 72%
Rainfall -999.00 in
Snow Depth Not available.
UV 0 out of 12
Pollen .40 out of 12
Air Quality Not available.
Flu Activity Not available.
METAR KSAW 022347Z 06004KT 10SM SKC M07/M13 A3024

More Conditions Fewer Conditions

Pressure 30.24 in
Visibility 10.0 miles
Clouds Clear
Windchill 13 °F
Dew Point 6 °F
Humidity 72%
Rainfall -999.00 in
Snow Depth Not available.
UV 0 out of 12
Pollen .40 out of 12
Air Quality Not available.
Flu Activity Not available.
METAR KSAW 022347Z 06004KT 10SM SKC M07/M13 A3024

More Conditions Fewer Conditions

10-Day Weather Forecast

Almanac

Astronomy

Mar. 02, 2015 Rise Set
Actual Time
Civil Twilight
Nautical Twilight
Astronomical Twilight
Moon
Length of Visible Light
Length of Day
Tomorrow will be .
, % of the Moon is Illuminated

Today's Extremes

State Highs State Lows

Community

WunderPhotos

Upload Photos

1,802,009 photos uploaded!

WunderBlogs® & News

Nearby

Air Quality

  Air Quality AQ Index Pollutant
Not available.

Snow Depth

Station Depth Elevation

Earthquake Activity

City Distance Mag. Time & Date
Minimum magnitude displayed is 2.5.

Coastal Water Temperatures

Place Temperature

Nearby Weather Stations

Winter Weather Advisory
Statement as of 3:58 PM EST on March 02, 2015

... Winter Weather Advisory in effect from 7 am to 7 PM EST
Tuesday...

The National Weather Service in Marquette has issued a Winter
Weather Advisory for snow... which is in effect from 7 am to 7 PM EST
Tuesday.

Hazardous weather...

* light snow will develop early Tuesday morning and then quickly
   increase in intensity during the morning hours. Expect the
   heaviest snow to fall between 10 am and 4 PM EST. The snow will
   then quickly diminish during the late afternoon hours.

* By sunset Tuesday... plan on storm total snow accumulations of 3 to
   5 inches. Isolated totals up to 6 inches are possible.

Impacts...

* roads will quickly become snow covered and slippery Tuesday
   morning.

Precautionary/preparedness actions...

* a Winter Weather Advisory for snow means that periods of snow
   will cause primarily travel difficulties.

* Prepare... plan... and stay informed. Visit www.Weather.Gov/MQT



Rolfson